sensor_id;sensor_type;location;lat;lon;timestamp;P1;durP1;ratioP1;P2;durP2;ratioP2
19404;SDS011;9838;49.384;8.292;2022-07-22T00:01:23;2.60;;;1.17;;
19404;SDS011;9838;49.384;8.292;2022-07-22T00:11:25;2.88;;;1.60;;
19404;SDS011;9838;49.384;8.292;2022-07-22T00:21:26;2.30;;;1.60;;
19404;SDS011;9838;49.384;8.292;2022-07-22T00:31:28;2.15;;;1.65;;
19404;SDS011;9838;49.384;8.292;2022-07-22T00:41:31;3.10;;;1.67;;
19404;SDS011;9838;49.384;8.292;2022-07-22T00:51:33;3.97;;;1.65;;
19404;SDS011;9838;49.384;8.292;2022-07-22T01:01:35;3.25;;;1.95;;
19404;SDS011;9838;49.384;8.292;2022-07-22T01:11:37;3.33;;;1.60;;
19404;SDS011;9838;49.384;8.292;2022-07-22T01:21:38;3.15;;;1.55;;
19404;SDS011;9838;49.384;8.292;2022-07-22T01:31:40;2.20;;;1.50;;
19404;SDS011;9838;49.384;8.292;2022-07-22T01:41:42;2.10;;;1.50;;
19404;SDS011;9838;49.384;8.292;2022-07-22T01:51:46;2.17;;;1.67;;
19404;SDS011;9838;49.384;8.292;2022-07-22T02:01:48;2.00;;;1.55;;
19404;SDS011;9838;49.384;8.292;2022-07-22T02:11:51;2.95;;;1.45;;
19404;SDS011;9838;49.384;8.292;2022-07-22T02:21:53;3.33;;;1.70;;
19404;SDS011;9838;49.384;8.292;2022-07-22T02:31:58;3.15;;;1.42;;
19404;SDS011;9838;49.384;8.292;2022-07-22T02:42:00;3.20;;;1.85;;
19404;SDS011;9838;49.384;8.292;2022-07-22T02:52:03;3.25;;;2.10;;
19404;SDS011;9838;49.384;8.292;2022-07-22T03:02:05;2.40;;;1.80;;
19404;SDS011;9838;49.384;8.292;2022-07-22T03:12:07;2.72;;;1.80;;
19404;SDS011;9838;49.384;8.292;2022-07-22T03:22:09;3.08;;;1.63;;
19404;SDS011;9838;49.384;8.292;2022-07-22T03:32:14;3.53;;;1.92;;
19404;SDS011;9838;49.384;8.292;2022-07-22T03:42:21;2.25;;;1.67;;
19404;SDS011;9838;49.384;8.292;2022-07-22T03:52:25;3.33;;;1.80;;
19404;SDS011;9838;49.384;8.292;2022-07-22T04:02:27;2.10;;;1.50;;
19404;SDS011;9838;49.384;8.292;2022-07-22T04:12:29;2.58;;;1.75;;
19404;SDS011;9838;49.384;8.292;2022-07-22T04:22:45;2.75;;;1.90;;
19404;SDS011;9838;49.384;8.292;2022-07-22T04:32:47;3.30;;;1.88;;
19404;SDS011;9838;49.384;8.292;2022-07-22T04:42:49;4.40;;;2.00;;
19404;SDS011;9838;49.384;8.292;2022-07-22T04:52:51;2.63;;;2.33;;
19404;SDS011;9838;49.384;8.292;2022-07-22T05:02:53;5.72;;;2.10;;
19404;SDS011;9838;49.384;8.292;2022-07-22T05:12:55;2.42;;;1.80;;
19404;SDS011;9838;49.384;8.292;2022-07-22T05:22:57;3.97;;;1.75;;
19404;SDS011;9838;49.384;8.292;2022-07-22T05:33:02;3.92;;;2.17;;
19404;SDS011;9838;49.384;8.292;2022-07-22T05:43:22;3.25;;;1.98;;
19404;SDS011;9838;49.384;8.292;2022-07-22T05:53:24;3.10;;;2.50;;
19404;SDS011;9838;49.384;8.292;2022-07-22T06:03:26;3.22;;;2.08;;
19404;SDS011;9838;49.384;8.292;2022-07-22T06:13:28;3.58;;;2.35;;
19404;SDS011;9838;49.384;8.292;2022-07-22T06:23:30;2.83;;;2.00;;
19404;SDS011;9838;49.384;8.292;2022-07-22T06:33:31;2.47;;;1.83;;
19404;SDS011;9838;49.384;8.292;2022-07-22T06:43:35;4.40;;;2.13;;
19404;SDS011;9838;49.384;8.292;2022-07-22T06:53:52;3.92;;;2.40;;
19404;SDS011;9838;49.384;8.292;2022-07-22T07:03:53;3.60;;;2.20;;
19404;SDS011;9838;49.384;8.292;2022-07-22T07:13:56;4.40;;;2.45;;
19404;SDS011;9838;49.384;8.292;2022-07-22T07:23:57;3.45;;;2.05;;
19404;SDS011;9838;49.384;8.292;2022-07-22T07:34:01;3.58;;;2.40;;
19404;SDS011;9838;49.384;8.292;2022-07-22T07:44:03;6.93;;;2.40;;
19404;SDS011;9838;49.384;8.292;2022-07-22T07:54:05;4.68;;;2.47;;
19404;SDS011;9838;49.384;8.292;2022-07-22T08:04:07;4.43;;;2.25;;
19404;SDS011;9838;49.384;8.292;2022-07-22T08:14:09;3.40;;;2.45;;
19404;SDS011;9838;49.384;8.292;2022-07-22T08:24:17;5.53;;;2.55;;
19404;SDS011;9838;49.384;8.292;2022-07-22T08:34:19;3.20;;;2.40;;
19404;SDS011;9838;49.384;8.292;2022-07-22T08:44:21;4.78;;;2.22;;
19404;SDS011;9838;49.384;8.292;2022-07-22T08:54:46;5.63;;;3.05;;
19404;SDS011;9838;49.384;8.292;2022-07-22T09:05:01;2.65;;;2.38;;
19404;SDS011;9838;49.384;8.292;2022-07-22T09:15:05;4.43;;;3.03;;
19404;SDS011;9838;49.384;8.292;2022-07-22T09:25:30;5.22;;;3.30;;
19404;SDS011;9838;49.384;8.292;2022-07-22T09:36:00;5.80;;;2.50;;
19404;SDS011;9838;49.384;8.292;2022-07-22T09:46:03;4.13;;;2.15;;
19404;SDS011;9838;49.384;8.292;2022-07-22T09:56:23;3.08;;;2.13;;
19404;SDS011;9838;49.384;8.292;2022-07-22T10:06:26;5.13;;;2.80;;
19404;SDS011;9838;49.384;8.292;2022-07-22T10:16:29;4.00;;;2.63;;
19404;SDS011;9838;49.384;8.292;2022-07-22T10:36:52;3.00;;;2.25;;
19404;SDS011;9838;49.384;8.292;2022-07-22T10:46:55;4.22;;;2.22;;
19404;SDS011;9838;49.384;8.292;2022-07-22T10:57:00;3.65;;;2.83;;
19404;SDS011;9838;49.384;8.292;2022-07-22T11:07:02;4.10;;;2.72;;
19404;SDS011;9838;49.384;8.292;2022-07-22T11:17:08;3.60;;;2.40;;
19404;SDS011;9838;49.384;8.292;2022-07-22T11:27:14;4.43;;;2.00;;
19404;SDS011;9838;49.384;8.292;2022-07-22T11:37:17;3.83;;;1.95;;
19404;SDS011;9838;49.384;8.292;2022-07-22T11:47:21;2.88;;;1.98;;
19404;SDS011;9838;49.384;8.292;2022-07-22T11:57:23;3.10;;;2.05;;
19404;SDS011;9838;49.384;8.292;2022-07-22T12:07:24;3.33;;;1.98;;
19404;SDS011;9838;49.384;8.292;2022-07-22T12:17:27;2.58;;;2.00;;
19404;SDS011;9838;49.384;8.292;2022-07-22T12:27:29;2.88;;;2.00;;
19404;SDS011;9838;49.384;8.292;2022-07-22T12:37:54;2.92;;;1.77;;
19404;SDS011;9838;49.384;8.292;2022-07-22T12:58:01;3.38;;;2.00;;
19404;SDS011;9838;49.384;8.292;2022-07-22T13:08:03;2.30;;;1.48;;
19404;SDS011;9838;49.384;8.292;2022-07-22T13:18:05;2.28;;;1.77;;
19404;SDS011;9838;49.384;8.292;2022-07-22T13:28:06;2.03;;;1.60;;
19404;SDS011;9838;49.384;8.292;2022-07-22T13:38:08;2.45;;;1.88;;
19404;SDS011;9838;49.384;8.292;2022-07-22T13:48:10;3.40;;;1.42;;
19404;SDS011;9838;49.384;8.292;2022-07-22T13:58:12;2.35;;;1.30;;
19404;SDS011;9838;49.384;8.292;2022-07-22T14:08:13;3.13;;;1.33;;
19404;SDS011;9838;49.384;8.292;2022-07-22T14:18:15;1.88;;;1.58;;
19404;SDS011;9838;49.384;8.292;2022-07-22T14:28:17;2.35;;;1.50;;
19404;SDS011;9838;49.384;8.292;2022-07-22T14:38:19;2.63;;;1.80;;
19404;SDS011;9838;49.384;8.292;2022-07-22T14:48:21;2.10;;;1.40;;
19404;SDS011;9838;49.384;8.292;2022-07-22T14:58:22;2.40;;;1.42;;
19404;SDS011;9838;49.384;8.292;2022-07-22T15:08:24;2.58;;;1.73;;
19404;SDS011;9838;49.384;8.292;2022-07-22T15:18:26;2.97;;;1.48;;
19404;SDS011;9838;49.384;8.292;2022-07-22T15:28:27;1.85;;;1.40;;
19404;SDS011;9838;49.384;8.292;2022-07-22T15:38:30;2.20;;;1.40;;
19404;SDS011;9838;49.384;8.292;2022-07-22T15:48:32;1.98;;;1.30;;
19404;SDS011;9838;49.384;8.292;2022-07-22T15:58:33;3.53;;;1.58;;
19404;SDS011;9838;49.384;8.292;2022-07-22T16:08:54;1.60;;;1.15;;
19404;SDS011;9838;49.384;8.292;2022-07-22T16:18:56;2.65;;;1.45;;
19404;SDS011;9838;49.384;8.292;2022-07-22T16:28:58;1.80;;;1.17;;
19404;SDS011;9838;49.384;8.292;2022-07-22T16:38:59;2.08;;;1.30;;
19404;SDS011;9838;49.384;8.292;2022-07-22T16:49:01;1.48;;;1.05;;
19404;SDS011;9838;49.384;8.292;2022-07-22T16:59:03;3.40;;;1.67;;
19404;SDS011;9838;49.384;8.292;2022-07-22T17:09:05;3.13;;;1.45;;
19404;SDS011;9838;49.384;8.292;2022-07-22T17:19:08;2.05;;;1.30;;
19404;SDS011;9838;49.384;8.292;2022-07-22T17:29:15;2.80;;;1.40;;
19404;SDS011;9838;49.384;8.292;2022-07-22T17:39:17;3.38;;;1.55;;
19404;SDS011;9838;49.384;8.292;2022-07-22T17:49:19;1.92;;;1.38;;
19404;SDS011;9838;49.384;8.292;2022-07-22T17:59:21;2.50;;;1.70;;
19404;SDS011;9838;49.384;8.292;2022-07-22T18:09:22;2.03;;;1.40;;
19404;SDS011;9838;49.384;8.292;2022-07-22T18:19:24;3.53;;;1.35;;
19404;SDS011;9838;49.384;8.292;2022-07-22T18:29:26;5.18;;;1.55;;
19404;SDS011;9838;49.384;8.292;2022-07-22T18:39:28;6.40;;;2.10;;
19404;SDS011;9838;49.384;8.292;2022-07-22T18:49:30;3.58;;;1.90;;
19404;SDS011;9838;49.384;8.292;2022-07-22T18:59:32;2.45;;;1.80;;
19404;SDS011;9838;49.384;8.292;2022-07-22T19:09:33;2.92;;;1.60;;
19404;SDS011;9838;49.384;8.292;2022-07-22T19:19:35;2.65;;;1.95;;
19404;SDS011;9838;49.384;8.292;2022-07-22T19:29:37;2.42;;;1.58;;
19404;SDS011;9838;49.384;8.292;2022-07-22T19:39:38;2.50;;;1.80;;
19404;SDS011;9838;49.384;8.292;2022-07-22T19:49:40;4.32;;;1.75;;
19404;SDS011;9838;49.384;8.292;2022-07-22T19:59:42;8.30;;;2.88;;
19404;SDS011;9838;49.384;8.292;2022-07-22T20:09:43;4.97;;;2.03;;
19404;SDS011;9838;49.384;8.292;2022-07-22T20:19:45;2.45;;;1.55;;
19404;SDS011;9838;49.384;8.292;2022-07-22T20:29:47;4.05;;;2.10;;
19404;SDS011;9838;49.384;8.292;2022-07-22T20:39:48;6.05;;;1.73;;
19404;SDS011;9838;49.384;8.292;2022-07-22T20:49:50;2.80;;;1.60;;
19404;SDS011;9838;49.384;8.292;2022-07-22T20:59:52;2.55;;;1.90;;
19404;SDS011;9838;49.384;8.292;2022-07-22T21:09:55;2.63;;;1.80;;
19404;SDS011;9838;49.384;8.292;2022-07-22T21:19:57;2.78;;;1.58;;
19404;SDS011;9838;49.384;8.292;2022-07-22T21:29:59;2.53;;;1.70;;
19404;SDS011;9838;49.384;8.292;2022-07-22T21:40:06;3.83;;;2.03;;
19404;SDS011;9838;49.384;8.292;2022-07-22T21:50:08;2.92;;;2.00;;
19404;SDS011;9838;49.384;8.292;2022-07-22T22:00:10;2.30;;;1.80;;
19404;SDS011;9838;49.384;8.292;2022-07-22T22:10:12;3.15;;;2.13;;
19404;SDS011;9838;49.384;8.292;2022-07-22T22:20:14;2.50;;;1.75;;
19404;SDS011;9838;49.384;8.292;2022-07-22T22:30:16;2.70;;;2.05;;
19404;SDS011;9838;49.384;8.292;2022-07-22T22:40:18;2.70;;;1.83;;
19404;SDS011;9838;49.384;8.292;2022-07-22T22:50:20;4.07;;;1.90;;
19404;SDS011;9838;49.384;8.292;2022-07-22T23:00:22;2.63;;;1.60;;
19404;SDS011;9838;49.384;8.292;2022-07-22T23:10:23;2.13;;;1.70;;
19404;SDS011;9838;49.384;8.292;2022-07-22T23:20:25;3.25;;;1.63;;
19404;SDS011;9838;49.384;8.292;2022-07-22T23:30:45;2.80;;;1.70;;
19404;SDS011;9838;49.384;8.292;2022-07-22T23:40:47;4.97;;;1.83;;
19404;SDS011;9838;49.384;8.292;2022-07-22T23:50:49;3.85;;;2.05;;
